sensor_id;sensor_type;location;lat;lon;timestamp;temperature;humidity
19809;DHT22;48538;32.784;-96.802;2023-09-08T00:00:16;34.70;99.90
19809;DHT22;48538;32.784;-96.802;2023-09-08T00:02:42;34.70;99.90
19809;DHT22;48538;32.784;-96.802;2023-09-08T00:05:08;34.60;99.90
19809;DHT22;48538;32.784;-96.802;2023-09-08T00:07:34;34.70;99.90
19809;DHT22;48538;32.784;-96.802;2023-09-08T00:10:01;34.60;99.90
19809;DHT22;48538;32.784;-96.802;2023-09-08T00:12:27;34.60;99.90
19809;DHT22;48538;32.784;-96.802;2023-09-08T00:14:53;34.50;99.90
19809;DHT22;48538;32.784;-96.802;2023-09-08T00:17:20;34.60;99.90
19809;DHT22;48538;32.784;-96.802;2023-09-08T00:19:46;34.60;99.90
19809;DHT22;48538;32.784;-96.802;2023-09-08T00:22:12;34.50;99.90
19809;DHT22;48538;32.784;-96.802;2023-09-08T00:24:38;34.50;99.90
19809;DHT22;48538;32.784;-96.802;2023-09-08T00:27:05;34.40;99.90
19809;DHT22;48538;32.784;-96.802;2023-09-08T00:29:31;34.40;99.90
19809;DHT22;48538;32.784;-96.802;2023-09-08T00:31:57;34.30;99.90
19809;DHT22;48538;32.784;-96.802;2023-09-08T00:34:24;34.30;99.90
19809;DHT22;48538;32.784;-96.802;2023-09-08T00:36:50;34.30;99.90
19809;DHT22;48538;32.784;-96.802;2023-09-08T00:39:17;34.30;99.90
19809;DHT22;48538;32.784;-96.802;2023-09-08T00:41:43;34.30;99.90
19809;DHT22;48538;32.784;-96.802;2023-09-08T00:44:09;34.30;99.90
19809;DHT22;48538;32.784;-96.802;2023-09-08T00:46:37;34.50;99.90
19809;DHT22;48538;32.784;-96.802;2023-09-08T00:49:03;34.40;99.90
19809;DHT22;48538;32.784;-96.802;2023-09-08T00:51:30;34.40;99.90
19809;DHT22;48538;32.784;-96.802;2023-09-08T00:53:57;34.30;99.90
19809;DHT22;48538;32.784;-96.802;2023-09-08T00:56:24;34.30;99.90
19809;DHT22;48538;32.784;-96.802;2023-09-08T00:58:50;34.30;99.90
19809;DHT22;48538;32.784;-96.802;2023-09-08T01:01:16;34.20;99.90
19809;DHT22;48538;32.784;-96.802;2023-09-08T01:03:43;34.10;99.90
19809;DHT22;48538;32.784;-96.802;2023-09-08T01:06:10;34.10;99.90
19809;DHT22;48538;32.784;-96.802;2023-09-08T01:08:36;34.10;99.90
19809;DHT22;48538;32.784;-96.802;2023-09-08T01:11:03;34.30;99.90
19809;DHT22;48538;32.784;-96.802;2023-09-08T01:13:29;34.20;99.90
19809;DHT22;48538;32.784;-96.802;2023-09-08T01:15:55;34.30;99.90
19809;DHT22;48538;32.784;-96.802;2023-09-08T01:18:22;34.30;99.90
19809;DHT22;48538;32.784;-96.802;2023-09-08T01:21:06;34.30;99.90
19809;DHT22;48538;32.784;-96.802;2023-09-08T01:26:18;34.20;99.90
19809;DHT22;48538;32.784;-96.802;2023-09-08T01:28:49;34.20;99.90
19809;DHT22;48538;32.784;-96.802;2023-09-08T01:31:17;34.10;99.90
19809;DHT22;48538;32.784;-96.802;2023-09-08T01:33:45;34.10;99.90
19809;DHT22;48538;32.784;-96.802;2023-09-08T01:36:11;34.00;99.90
19809;DHT22;48538;32.784;-96.802;2023-09-08T01:38:38;34.00;99.90
19809;DHT22;48538;32.784;-96.802;2023-09-08T01:41:04;33.90;99.90
19809;DHT22;48538;32.784;-96.802;2023-09-08T01:43:31;33.90;99.90
19809;DHT22;48538;32.784;-96.802;2023-09-08T01:45:57;33.80;99.90
19809;DHT22;48538;32.784;-96.802;2023-09-08T01:48:23;33.90;99.90
19809;DHT22;48538;32.784;-96.802;2023-09-08T01:50:49;33.80;99.90
19809;DHT22;48538;32.784;-96.802;2023-09-08T01:53:16;33.80;99.90
19809;DHT22;48538;32.784;-96.802;2023-09-08T01:55:42;33.80;99.90
19809;DHT22;48538;32.784;-96.802;2023-09-08T01:58:08;33.80;99.90
19809;DHT22;48538;32.784;-96.802;2023-09-08T02:00:34;33.80;99.90
19809;DHT22;48538;32.784;-96.802;2023-09-08T02:03:01;33.70;99.90
19809;DHT22;48538;32.784;-96.802;2023-09-08T02:05:27;33.70;99.90
19809;DHT22;48538;32.784;-96.802;2023-09-08T02:07:53;33.60;99.90
19809;DHT22;48538;32.784;-96.802;2023-09-08T02:10:21;33.50;99.90
19809;DHT22;48538;32.784;-96.802;2023-09-08T02:12:47;33.50;99.90
19809;DHT22;48538;32.784;-96.802;2023-09-08T02:15:13;33.60;99.90
19809;DHT22;48538;32.784;-96.802;2023-09-08T02:17:42;33.50;99.90
19809;DHT22;48538;32.784;-96.802;2023-09-08T02:20:09;33.50;99.90
19809;DHT22;48538;32.784;-96.802;2023-09-08T02:22:36;33.50;99.90
19809;DHT22;48538;32.784;-96.802;2023-09-08T02:25:02;33.40;99.90
19809;DHT22;48538;32.784;-96.802;2023-09-08T02:27:29;33.40;99.90
19809;DHT22;48538;32.784;-96.802;2023-09-08T02:29:55;33.50;99.90
19809;DHT22;48538;32.784;-96.802;2023-09-08T02:32:21;33.50;99.90
19809;DHT22;48538;32.784;-96.802;2023-09-08T02:34:47;33.40;99.90
19809;DHT22;48538;32.784;-96.802;2023-09-08T02:37:15;33.40;99.90
19809;DHT22;48538;32.784;-96.802;2023-09-08T02:39:41;33.30;99.90
19809;DHT22;48538;32.784;-96.802;2023-09-08T02:42:07;33.20;99.90
19809;DHT22;48538;32.784;-96.802;2023-09-08T02:44:34;33.20;99.90
19809;DHT22;48538;32.784;-96.802;2023-09-08T02:47:00;33.10;99.90
19809;DHT22;48538;32.784;-96.802;2023-09-08T02:49:26;33.10;99.90
19809;DHT22;48538;32.784;-96.802;2023-09-08T02:51:52;33.00;99.90
19809;DHT22;48538;32.784;-96.802;2023-09-08T02:54:19;33.10;99.90
19809;DHT22;48538;32.784;-96.802;2023-09-08T02:56:45;33.10;99.90
19809;DHT22;48538;32.784;-96.802;2023-09-08T02:59:11;33.10;99.90
19809;DHT22;48538;32.784;-96.802;2023-09-08T03:01:37;33.10;99.90
19809;DHT22;48538;32.784;-96.802;2023-09-08T03:04:04;33.10;99.90
19809;DHT22;48538;32.784;-96.802;2023-09-08T03:06:30;33.10;99.90
19809;DHT22;48538;32.784;-96.802;2023-09-08T03:08:58;33.10;99.90
19809;DHT22;48538;32.784;-96.802;2023-09-08T03:11:24;33.00;99.90
19809;DHT22;48538;32.784;-96.802;2023-09-08T03:13:51;33.00;99.90
19809;DHT22;48538;32.784;-96.802;2023-09-08T03:16:17;32.90;99.90
19809;DHT22;48538;32.784;-96.802;2023-09-08T03:18:43;33.00;99.90
19809;DHT22;48538;32.784;-96.802;2023-09-08T03:21:09;32.90;99.90
19809;DHT22;48538;32.784;-96.802;2023-09-08T03:23:41;32.80;99.90
19809;DHT22;48538;32.784;-96.802;2023-09-08T03:26:08;33.00;99.90
19809;DHT22;48538;32.784;-96.802;2023-09-08T03:28:36;32.90;99.90
19809;DHT22;48538;32.784;-96.802;2023-09-08T03:31:03;32.90;99.90
19809;DHT22;48538;32.784;-96.802;2023-09-08T03:33:29;32.80;99.90
19809;DHT22;48538;32.784;-96.802;2023-09-08T03:35:56;32.80;99.90
19809;DHT22;48538;32.784;-96.802;2023-09-08T03:38:22;32.80;99.90
19809;DHT22;48538;32.784;-96.802;2023-09-08T03:40:49;32.70;99.90
19809;DHT22;48538;32.784;-96.802;2023-09-08T03:43:15;32.70;99.90
19809;DHT22;48538;32.784;-96.802;2023-09-08T03:45:42;32.70;99.90
19809;DHT22;48538;32.784;-96.802;2023-09-08T03:48:08;32.60;99.90
19809;DHT22;48538;32.784;-96.802;2023-09-08T03:50:35;32.70;99.90
19809;DHT22;48538;32.784;-96.802;2023-09-08T03:53:01;32.60;99.90
19809;DHT22;48538;32.784;-96.802;2023-09-08T03:55:27;32.60;99.90
19809;DHT22;48538;32.784;-96.802;2023-09-08T03:57:53;32.40;99.90
19809;DHT22;48538;32.784;-96.802;2023-09-08T04:00:20;32.40;99.90
19809;DHT22;48538;32.784;-96.802;2023-09-08T04:02:51;32.40;99.90
19809;DHT22;48538;32.784;-96.802;2023-09-08T04:05:18;32.40;99.90
19809;DHT22;48538;32.784;-96.802;2023-09-08T04:07:45;32.30;99.90
19809;DHT22;48538;32.784;-96.802;2023-09-08T04:10:11;32.30;99.90
19809;DHT22;48538;32.784;-96.802;2023-09-08T04:12:41;32.30;99.90
19809;DHT22;48538;32.784;-96.802;2023-09-08T04:15:08;32.30;99.90
19809;DHT22;48538;32.784;-96.802;2023-09-08T04:17:35;32.30;99.90
19809;DHT22;48538;32.784;-96.802;2023-09-08T04:20:05;32.20;99.90
19809;DHT22;48538;32.784;-96.802;2023-09-08T04:22:32;32.30;99.90
19809;DHT22;48538;32.784;-96.802;2023-09-08T04:25:00;32.20;99.90
19809;DHT22;48538;32.784;-96.802;2023-09-08T04:27:26;32.10;99.90
19809;DHT22;48538;32.784;-96.802;2023-09-08T04:29:53;32.10;99.90
19809;DHT22;48538;32.784;-96.802;2023-09-08T04:32:19;32.00;99.90
19809;DHT22;48538;32.784;-96.802;2023-09-08T04:34:45;32.00;99.90
19809;DHT22;48538;32.784;-96.802;2023-09-08T04:37:12;32.00;99.90
19809;DHT22;48538;32.784;-96.802;2023-09-08T04:39:38;31.90;99.90
19809;DHT22;48538;32.784;-96.802;2023-09-08T04:42:06;31.80;99.90
19809;DHT22;48538;32.784;-96.802;2023-09-08T04:44:32;31.70;99.90
19809;DHT22;48538;32.784;-96.802;2023-09-08T04:46:58;31.70;99.90
19809;DHT22;48538;32.784;-96.802;2023-09-08T04:49:25;31.70;99.90
19809;DHT22;48538;32.784;-96.802;2023-09-08T04:51:51;31.60;99.90
19809;DHT22;48538;32.784;-96.802;2023-09-08T04:54:17;31.60;99.90
19809;DHT22;48538;32.784;-96.802;2023-09-08T04:56:43;31.70;99.90
19809;DHT22;48538;32.784;-96.802;2023-09-08T04:59:09;31.70;99.90
19809;DHT22;48538;32.784;-96.802;2023-09-08T05:01:36;31.60;99.90
19809;DHT22;48538;32.784;-96.802;2023-09-08T05:04:03;31.60;99.90
19809;DHT22;48538;32.784;-96.802;2023-09-08T05:06:30;31.50;99.90
19809;DHT22;48538;32.784;-96.802;2023-09-08T05:08:57;31.50;99.90
19809;DHT22;48538;32.784;-96.802;2023-09-08T05:11:23;31.50;99.90
19809;DHT22;48538;32.784;-96.802;2023-09-08T05:13:51;31.40;99.90
19809;DHT22;48538;32.784;-96.802;2023-09-08T05:16:17;31.40;99.90
19809;DHT22;48538;32.784;-96.802;2023-09-08T05:18:51;31.40;99.90
19809;DHT22;48538;32.784;-96.802;2023-09-08T05:21:20;31.40;99.90
19809;DHT22;48538;32.784;-96.802;2023-09-08T05:23:46;31.40;99.90
19809;DHT22;48538;32.784;-96.802;2023-09-08T05:26:13;31.30;99.90
19809;DHT22;48538;32.784;-96.802;2023-09-08T05:28:39;31.40;99.90
19809;DHT22;48538;32.784;-96.802;2023-09-08T05:31:05;31.40;99.90
19809;DHT22;48538;32.784;-96.802;2023-09-08T05:33:31;31.40;99.90
19809;DHT22;48538;32.784;-96.802;2023-09-08T05:35:58;31.30;99.90
19809;DHT22;48538;32.784;-96.802;2023-09-08T05:38:24;31.40;99.90
19809;DHT22;48538;32.784;-96.802;2023-09-08T05:40:51;31.40;99.90
19809;DHT22;48538;32.784;-96.802;2023-09-08T05:43:17;31.30;99.90
19809;DHT22;48538;32.784;-96.802;2023-09-08T05:45:43;31.30;99.90
19809;DHT22;48538;32.784;-96.802;2023-09-08T05:48:10;31.30;99.90
19809;DHT22;48538;32.784;-96.802;2023-09-08T05:50:36;31.30;99.90
19809;DHT22;48538;32.784;-96.802;2023-09-08T05:53:03;31.30;99.90
19809;DHT22;48538;32.784;-96.802;2023-09-08T05:55:29;31.30;99.90
19809;DHT22;48538;32.784;-96.802;2023-09-08T05:57:55;31.40;99.90
19809;DHT22;48538;32.784;-96.802;2023-09-08T06:00:22;31.40;99.90
19809;DHT22;48538;32.784;-96.802;2023-09-08T06:02:48;31.40;99.90
19809;DHT22;48538;32.784;-96.802;2023-09-08T06:05:14;31.40;99.90
19809;DHT22;48538;32.784;-96.802;2023-09-08T06:07:41;31.40;99.90
19809;DHT22;48538;32.784;-96.802;2023-09-08T06:10:07;31.40;99.90
19809;DHT22;48538;32.784;-96.802;2023-09-08T06:12:33;31.40;99.90
19809;DHT22;48538;32.784;-96.802;2023-09-08T06:15:01;31.50;99.90
19809;DHT22;48538;32.784;-96.802;2023-09-08T06:17:28;31.40;99.90
19809;DHT22;48538;32.784;-96.802;2023-09-08T06:19:55;31.40;99.90
19809;DHT22;48538;32.784;-96.802;2023-09-08T06:22:22;31.40;99.90
19809;DHT22;48538;32.784;-96.802;2023-09-08T06:24:48;31.40;99.90
19809;DHT22;48538;32.784;-96.802;2023-09-08T06:27:15;31.40;99.90
19809;DHT22;48538;32.784;-96.802;2023-09-08T06:29:41;31.40;99.90
19809;DHT22;48538;32.784;-96.802;2023-09-08T06:32:10;31.40;99.90
19809;DHT22;48538;32.784;-96.802;2023-09-08T06:34:36;31.40;99.90
19809;DHT22;48538;32.784;-96.802;2023-09-08T06:37:02;31.40;99.90
19809;DHT22;48538;32.784;-96.802;2023-09-08T06:39:29;31.40;99.90
19809;DHT22;48538;32.784;-96.802;2023-09-08T06:41:55;31.30;99.90
19809;DHT22;48538;32.784;-96.802;2023-09-08T06:44:21;31.30;99.90
19809;DHT22;48538;32.784;-96.802;2023-09-08T06:46:47;31.30;99.90
19809;DHT22;48538;32.784;-96.802;2023-09-08T06:49:14;31.30;99.90
19809;DHT22;48538;32.784;-96.802;2023-09-08T06:51:40;31.20;99.90
19809;DHT22;48538;32.784;-96.802;2023-09-08T06:54:06;31.20;99.90
19809;DHT22;48538;32.784;-96.802;2023-09-08T06:56:33;31.20;99.90
19809;DHT22;48538;32.784;-96.802;2023-09-08T06:58:59;31.10;99.90
19809;DHT22;48538;32.784;-96.802;2023-09-08T07:01:26;31.00;99.90
19809;DHT22;48538;32.784;-96.802;2023-09-08T07:03:52;31.00;99.90
19809;DHT22;48538;32.784;-96.802;2023-09-08T07:06:18;30.90;99.90
19809;DHT22;48538;32.784;-96.802;2023-09-08T07:08:48;30.90;99.90
19809;DHT22;48538;32.784;-96.802;2023-09-08T07:11:17;30.90;99.90
19809;DHT22;48538;32.784;-96.802;2023-09-08T07:13:43;30.80;99.90
19809;DHT22;48538;32.784;-96.802;2023-09-08T07:16:10;30.80;99.90
19809;DHT22;48538;32.784;-96.802;2023-09-08T07:18:36;30.80;99.90
19809;DHT22;48538;32.784;-96.802;2023-09-08T07:21:04;30.70;99.90
19809;DHT22;48538;32.784;-96.802;2023-09-08T07:23:30;30.70;99.90
19809;DHT22;48538;32.784;-96.802;2023-09-08T07:25:56;30.70;99.90
19809;DHT22;48538;32.784;-96.802;2023-09-08T07:28:22;30.70;99.90
19809;DHT22;48538;32.784;-96.802;2023-09-08T07:30:49;30.60;99.90
19809;DHT22;48538;32.784;-96.802;2023-09-08T07:33:15;30.60;99.90
19809;DHT22;48538;32.784;-96.802;2023-09-08T07:35:42;30.60;99.90
19809;DHT22;48538;32.784;-96.802;2023-09-08T07:38:08;30.50;99.90
19809;DHT22;48538;32.784;-96.802;2023-09-08T07:40:35;30.40;99.90
19809;DHT22;48538;32.784;-96.802;2023-09-08T07:43:01;30.40;99.90
19809;DHT22;48538;32.784;-96.802;2023-09-08T07:45:28;30.40;99.90
19809;DHT22;48538;32.784;-96.802;2023-09-08T07:47:54;30.30;99.90
19809;DHT22;48538;32.784;-96.802;2023-09-08T07:50:26;30.30;99.90
19809;DHT22;48538;32.784;-96.802;2023-09-08T07:52:55;30.30;99.90
19809;DHT22;48538;32.784;-96.802;2023-09-08T07:55:22;30.30;99.90
19809;DHT22;48538;32.784;-96.802;2023-09-08T07:57:49;30.20;99.90
19809;DHT22;48538;32.784;-96.802;2023-09-08T08:00:16;30.20;99.90
19809;DHT22;48538;32.784;-96.802;2023-09-08T08:02:46;30.20;99.90
19809;DHT22;48538;32.784;-96.802;2023-09-08T08:05:13;30.20;99.90
19809;DHT22;48538;32.784;-96.802;2023-09-08T08:07:39;30.20;99.90
19809;DHT22;48538;32.784;-96.802;2023-09-08T08:10:06;30.10;99.90
19809;DHT22;48538;32.784;-96.802;2023-09-08T08:12:33;30.10;99.90
19809;DHT22;48538;32.784;-96.802;2023-09-08T08:14:59;30.00;99.90
19809;DHT22;48538;32.784;-96.802;2023-09-08T08:17:25;30.10;99.90
19809;DHT22;48538;32.784;-96.802;2023-09-08T08:19:56;30.10;99.90
19809;DHT22;48538;32.784;-96.802;2023-09-08T08:22:26;30.20;99.90
19809;DHT22;48538;32.784;-96.802;2023-09-08T08:24:52;30.20;99.90
19809;DHT22;48538;32.784;-96.802;2023-09-08T08:27:19;30.20;99.90
19809;DHT22;48538;32.784;-96.802;2023-09-08T08:29:45;30.20;99.90
19809;DHT22;48538;32.784;-96.802;2023-09-08T08:32:11;30.30;99.90
19809;DHT22;48538;32.784;-96.802;2023-09-08T08:34:38;30.30;99.90
19809;DHT22;48538;32.784;-96.802;2023-09-08T08:37:04;30.30;99.90
19809;DHT22;48538;32.784;-96.802;2023-09-08T08:39:30;30.30;99.90
19809;DHT22;48538;32.784;-96.802;2023-09-08T08:41:57;30.20;99.90
19809;DHT22;48538;32.784;-96.802;2023-09-08T08:44:23;30.20;99.90
19809;DHT22;48538;32.784;-96.802;2023-09-08T08:46:50;30.20;99.90
19809;DHT22;48538;32.784;-96.802;2023-09-08T08:49:17;30.20;99.90
19809;DHT22;48538;32.784;-96.802;2023-09-08T08:51:45;30.30;99.90
19809;DHT22;48538;32.784;-96.802;2023-09-08T08:54:13;30.30;99.90
19809;DHT22;48538;32.784;-96.802;2023-09-08T08:56:41;30.30;99.90
19809;DHT22;48538;32.784;-96.802;2023-09-08T08:59:09;30.40;99.90
19809;DHT22;48538;32.784;-96.802;2023-09-08T09:01:36;30.40;99.90
19809;DHT22;48538;32.784;-96.802;2023-09-08T09:04:05;30.30;99.90
19809;DHT22;48538;32.784;-96.802;2023-09-08T09:06:32;30.40;99.90
19809;DHT22;48538;32.784;-96.802;2023-09-08T09:08:59;30.50;99.90
19809;DHT22;48538;32.784;-96.802;2023-09-08T09:11:26;30.50;99.90
19809;DHT22;48538;32.784;-96.802;2023-09-08T09:13:52;30.50;99.90
19809;DHT22;48538;32.784;-96.802;2023-09-08T09:16:19;30.50;99.90
19809;DHT22;48538;32.784;-96.802;2023-09-08T09:18:57;30.50;99.90
19809;DHT22;48538;32.784;-96.802;2023-09-08T09:21:23;30.40;99.90
19809;DHT22;48538;32.784;-96.802;2023-09-08T09:23:50;30.50;99.90
19809;DHT22;48538;32.784;-96.802;2023-09-08T09:26:24;30.50;99.90
19809;DHT22;48538;32.784;-96.802;2023-09-08T09:28:50;30.50;99.90
19809;DHT22;48538;32.784;-96.802;2023-09-08T09:31:18;30.50;99.90
19809;DHT22;48538;32.784;-96.802;2023-09-08T09:33:44;30.40;99.90
19809;DHT22;48538;32.784;-96.802;2023-09-08T09:36:20;30.50;99.90
19809;DHT22;48538;32.784;-96.802;2023-09-08T09:38:47;30.50;99.90
19809;DHT22;48538;32.784;-96.802;2023-09-08T09:41:15;30.50;99.90
19809;DHT22;48538;32.784;-96.802;2023-09-08T09:43:42;30.50;99.90
19809;DHT22;48538;32.784;-96.802;2023-09-08T09:46:10;30.60;99.90
19809;DHT22;48538;32.784;-96.802;2023-09-08T09:48:36;30.60;99.90
19809;DHT22;48538;32.784;-96.802;2023-09-08T09:51:20;30.50;99.90
19809;DHT22;48538;32.784;-96.802;2023-09-08T09:53:47;30.50;99.90
19809;DHT22;48538;32.784;-96.802;2023-09-08T09:56:17;30.50;99.90
19809;DHT22;48538;32.784;-96.802;2023-09-08T09:58:44;30.50;99.90
19809;DHT22;48538;32.784;-96.802;2023-09-08T10:01:11;30.50;99.90
19809;DHT22;48538;32.784;-96.802;2023-09-08T10:03:41;30.50;99.90
19809;DHT22;48538;32.784;-96.802;2023-09-08T10:06:07;30.50;99.90
19809;DHT22;48538;32.784;-96.802;2023-09-08T10:08:35;30.40;99.90
19809;DHT22;48538;32.784;-96.802;2023-09-08T10:11:07;30.40;99.90
19809;DHT22;48538;32.784;-96.802;2023-09-08T10:13:39;30.40;99.90
19809;DHT22;48538;32.784;-96.802;2023-09-08T10:16:09;30.40;99.90
19809;DHT22;48538;32.784;-96.802;2023-09-08T10:18:39;30.40;99.90
19809;DHT22;48538;32.784;-96.802;2023-09-08T10:21:09;30.40;99.90
19809;DHT22;48538;32.784;-96.802;2023-09-08T10:23:46;30.40;99.90
19809;DHT22;48538;32.784;-96.802;2023-09-08T10:26:22;30.30;99.90
19809;DHT22;48538;32.784;-96.802;2023-09-08T10:28:51;30.30;99.90
19809;DHT22;48538;32.784;-96.802;2023-09-08T10:31:26;30.30;99.90
19809;DHT22;48538;32.784;-96.802;2023-09-08T10:33:56;30.20;99.90
19809;DHT22;48538;32.784;-96.802;2023-09-08T10:36:26;30.20;99.90
19809;DHT22;48538;32.784;-96.802;2023-09-08T10:38:53;30.20;99.90
19809;DHT22;48538;32.784;-96.802;2023-09-08T10:44:17;30.20;99.90
19809;DHT22;48538;32.784;-96.802;2023-09-08T10:46:43;30.20;99.90
19809;DHT22;48538;32.784;-96.802;2023-09-08T10:49:10;30.20;99.90
19809;DHT22;48538;32.784;-96.802;2023-09-08T10:51:39;30.10;99.90
19809;DHT22;48538;32.784;-96.802;2023-09-08T10:54:05;30.10;99.90
19809;DHT22;48538;32.784;-96.802;2023-09-08T10:56:54;30.00;99.90
19809;DHT22;48538;32.784;-96.802;2023-09-08T10:59:28;29.90;99.90
19809;DHT22;48538;32.784;-96.802;2023-09-08T11:01:54;29.90;99.90
19809;DHT22;48538;32.784;-96.802;2023-09-08T11:04:21;29.80;99.90
19809;DHT22;48538;32.784;-96.802;2023-09-08T11:06:52;29.80;99.90
19809;DHT22;48538;32.784;-96.802;2023-09-08T11:09:18;29.70;99.90
19809;DHT22;48538;32.784;-96.802;2023-09-08T11:11:46;29.70;99.90
19809;DHT22;48538;32.784;-96.802;2023-09-08T11:14:13;29.70;99.90
19809;DHT22;48538;32.784;-96.802;2023-09-08T11:16:40;29.70;99.90
19809;DHT22;48538;32.784;-96.802;2023-09-08T11:19:06;29.70;99.90
19809;DHT22;48538;32.784;-96.802;2023-09-08T11:21:32;29.70;99.90
19809;DHT22;48538;32.784;-96.802;2023-09-08T11:24:05;29.80;99.90
19809;DHT22;48538;32.784;-96.802;2023-09-08T11:26:35;29.90;99.90
19809;DHT22;48538;32.784;-96.802;2023-09-08T11:29:01;29.90;99.90
19809;DHT22;48538;32.784;-96.802;2023-09-08T11:31:28;29.90;99.90
19809;DHT22;48538;32.784;-96.802;2023-09-08T11:33:55;30.00;99.90
19809;DHT22;48538;32.784;-96.802;2023-09-08T11:36:21;30.00;99.90
19809;DHT22;48538;32.784;-96.802;2023-09-08T11:38:47;30.00;99.90
19809;DHT22;48538;32.784;-96.802;2023-09-08T11:41:13;30.10;99.90
19809;DHT22;48538;32.784;-96.802;2023-09-08T11:43:40;30.10;99.90
19809;DHT22;48538;32.784;-96.802;2023-09-08T11:46:06;30.10;99.90
19809;DHT22;48538;32.784;-96.802;2023-09-08T11:48:33;30.10;99.90
19809;DHT22;48538;32.784;-96.802;2023-09-08T11:50:59;30.10;99.90
19809;DHT22;48538;32.784;-96.802;2023-09-08T11:53:25;30.10;99.90
19809;DHT22;48538;32.784;-96.802;2023-09-08T11:55:52;30.10;99.90
19809;DHT22;48538;32.784;-96.802;2023-09-08T11:58:20;30.10;99.90
19809;DHT22;48538;32.784;-96.802;2023-09-08T12:00:46;30.10;99.90
19809;DHT22;48538;32.784;-96.802;2023-09-08T12:03:15;30.10;99.90
19809;DHT22;48538;32.784;-96.802;2023-09-08T12:05:44;30.10;99.90
19809;DHT22;48538;32.784;-96.802;2023-09-08T12:08:11;30.00;99.90
19809;DHT22;48538;32.784;-96.802;2023-09-08T12:10:43;30.00;99.90
19809;DHT22;48538;32.784;-96.802;2023-09-08T12:13:09;29.90;99.90
19809;DHT22;48538;32.784;-96.802;2023-09-08T12:15:40;29.90;99.90
19809;DHT22;48538;32.784;-96.802;2023-09-08T12:18:08;29.90;99.90
19809;DHT22;48538;32.784;-96.802;2023-09-08T12:20:36;29.90;99.90
19809;DHT22;48538;32.784;-96.802;2023-09-08T12:23:16;29.80;99.90
19809;DHT22;48538;32.784;-96.802;2023-09-08T12:25:47;29.80;99.90
19809;DHT22;48538;32.784;-96.802;2023-09-08T12:28:13;29.70;99.90
19809;DHT22;48538;32.784;-96.802;2023-09-08T12:30:40;29.70;99.90
19809;DHT22;48538;32.784;-96.802;2023-09-08T12:33:07;29.70;99.90
19809;DHT22;48538;32.784;-96.802;2023-09-08T12:35:35;29.70;99.90
19809;DHT22;48538;32.784;-96.802;2023-09-08T12:38:03;29.70;99.90
19809;DHT22;48538;32.784;-96.802;2023-09-08T12:40:35;29.70;99.90
19809;DHT22;48538;32.784;-96.802;2023-09-08T12:43:02;29.70;99.90
19809;DHT22;48538;32.784;-96.802;2023-09-08T12:45:29;29.60;99.90
19809;DHT22;48538;32.784;-96.802;2023-09-08T12:47:58;29.60;99.90
19809;DHT22;48538;32.784;-96.802;2023-09-08T12:50:25;29.60;99.90
19809;DHT22;48538;32.784;-96.802;2023-09-08T12:52:52;29.60;99.90
19809;DHT22;48538;32.784;-96.802;2023-09-08T12:55:19;29.60;99.90
19809;DHT22;48538;32.784;-96.802;2023-09-08T12:57:45;29.60;99.90
19809;DHT22;48538;32.784;-96.802;2023-09-08T13:00:13;29.70;99.90
19809;DHT22;48538;32.784;-96.802;2023-09-08T13:02:40;29.70;99.90
19809;DHT22;48538;32.784;-96.802;2023-09-08T13:05:07;29.70;99.90
19809;DHT22;48538;32.784;-96.802;2023-09-08T13:07:33;29.80;99.90
19809;DHT22;48538;32.784;-96.802;2023-09-08T13:10:00;29.90;99.90
19809;DHT22;48538;32.784;-96.802;2023-09-08T13:12:26;29.90;99.90
19809;DHT22;48538;32.784;-96.802;2023-09-08T13:14:52;29.90;99.90
19809;DHT22;48538;32.784;-96.802;2023-09-08T13:17:18;29.90;99.90
19809;DHT22;48538;32.784;-96.802;2023-09-08T13:19:46;30.00;99.90
19809;DHT22;48538;32.784;-96.802;2023-09-08T13:22:13;30.00;99.90
19809;DHT22;48538;32.784;-96.802;2023-09-08T13:24:39;30.00;99.90
19809;DHT22;48538;32.784;-96.802;2023-09-08T13:27:06;30.00;99.90
19809;DHT22;48538;32.784;-96.802;2023-09-08T13:29:32;30.00;99.90
19809;DHT22;48538;32.784;-96.802;2023-09-08T13:31:58;30.00;99.90
19809;DHT22;48538;32.784;-96.802;2023-09-08T13:34:25;30.00;99.90
19809;DHT22;48538;32.784;-96.802;2023-09-08T13:36:51;30.00;99.90
19809;DHT22;48538;32.784;-96.802;2023-09-08T13:39:17;30.10;99.90
19809;DHT22;48538;32.784;-96.802;2023-09-08T13:44:14;30.10;99.90
19809;DHT22;48538;32.784;-96.802;2023-09-08T13:46:40;30.10;99.90
19809;DHT22;48538;32.784;-96.802;2023-09-08T13:49:06;30.10;99.90
19809;DHT22;48538;32.784;-96.802;2023-09-08T13:51:32;30.10;99.90
19809;DHT22;48538;32.784;-96.802;2023-09-08T13:53:59;30.10;99.90
19809;DHT22;48538;32.784;-96.802;2023-09-08T13:56:25;30.20;99.90
19809;DHT22;48538;32.784;-96.802;2023-09-08T13:58:52;30.20;99.90
19809;DHT22;48538;32.784;-96.802;2023-09-08T14:01:18;30.20;99.90
19809;DHT22;48538;32.784;-96.802;2023-09-08T14:03:44;30.20;99.90
19809;DHT22;48538;32.784;-96.802;2023-09-08T14:06:10;30.30;99.90
19809;DHT22;48538;32.784;-96.802;2023-09-08T14:08:36;30.30;99.90
19809;DHT22;48538;32.784;-96.802;2023-09-08T14:11:03;30.30;99.90
19809;DHT22;48538;32.784;-96.802;2023-09-08T14:13:29;30.30;99.90
19809;DHT22;48538;32.784;-96.802;2023-09-08T14:15:55;30.40;99.90
19809;DHT22;48538;32.784;-96.802;2023-09-08T14:18:21;30.40;99.90
19809;DHT22;48538;32.784;-96.802;2023-09-08T14:20:47;30.40;99.90
19809;DHT22;48538;32.784;-96.802;2023-09-08T14:23:14;30.40;99.90
19809;DHT22;48538;32.784;-96.802;2023-09-08T14:25:40;30.40;99.90
19809;DHT22;48538;32.784;-96.802;2023-09-08T14:28:06;30.40;99.90
19809;DHT22;48538;32.784;-96.802;2023-09-08T14:30:33;30.50;99.90
19809;DHT22;48538;32.784;-96.802;2023-09-08T14:32:59;30.40;99.90
19809;DHT22;48538;32.784;-96.802;2023-09-08T14:35:26;30.50;99.90
19809;DHT22;48538;32.784;-96.802;2023-09-08T14:37:52;30.60;99.90
19809;DHT22;48538;32.784;-96.802;2023-09-08T14:40:18;30.60;99.90
19809;DHT22;48538;32.784;-96.802;2023-09-08T14:42:44;30.60;99.90
19809;DHT22;48538;32.784;-96.802;2023-09-08T14:45:11;30.70;99.90
19809;DHT22;48538;32.784;-96.802;2023-09-08T14:47:38;30.70;99.90
19809;DHT22;48538;32.784;-96.802;2023-09-08T14:50:04;30.80;99.90
19809;DHT22;48538;32.784;-96.802;2023-09-08T14:52:31;30.80;99.90
19809;DHT22;48538;32.784;-96.802;2023-09-08T14:54:57;30.80;99.90
19809;DHT22;48538;32.784;-96.802;2023-09-08T14:57:23;30.80;99.90
19809;DHT22;48538;32.784;-96.802;2023-09-08T14:59:49;30.90;99.90
19809;DHT22;48538;32.784;-96.802;2023-09-08T15:02:20;31.00;99.90
19809;DHT22;48538;32.784;-96.802;2023-09-08T15:04:46;31.00;99.90
19809;DHT22;48538;32.784;-96.802;2023-09-08T15:07:12;31.00;99.90
19809;DHT22;48538;32.784;-96.802;2023-09-08T15:09:38;31.10;99.90